Time;durP1;ratioP1;P1;durP2;ratioP2;P2;SDS_P1;SDS_P2;PMS_P1;PMS_P2;Temp;Humidity;BMP_temperature;BMP_pressure;BME280_temperature;BME280_humidity;BME280_pressure;Samples;Min_cycle;Max_cycle;Signal;HPM_P1;HPM_P2
2022/11/17 00:02:24;;;;;;;50.97;32.03;;;;;;;;;;5099527;28;20016;-75
2022/11/17 00:05:09;;;;;;;49.10;31.27;;;;;;;;;;5114967;28;20051;-74
2022/11/17 00:07:55;;;;;;;57.30;35.17;;;;;;;;;;5114420;28;20019;-75
2022/11/17 00:10:41;;;;;;;53.38;33.97;;;;;;;;;;5099934;28;20051;-75
2022/11/17 00:16:30;;;;;;;51.33;33.45;;;;;;;;;;5115427;28;20415;-75
2022/11/17 00:22:20;;;;;;;51.05;32.67;;;;;;;;;;5115895;28;20110;-75
2022/11/17 00:25:06;;;;;;;50.70;32.88;;;;;;;;;;5114710;28;20344;-75
2022/11/17 00:27:52;;;;;;;51.53;32.65;;;;;;;;;;5100233;28;20459;-75
2022/11/17 00:36:47;;;;;;;48.33;30.90;;;;;;;;;;5114873;28;20044;-73
2022/11/17 00:39:33;;;;;;;51.10;32.38;;;;;;;;;;5113965;28;20019;-74
2022/11/17 00:42:18;;;;;;;54.35;33.00;;;;;;;;;;5100954;28;20448;-74
2022/11/17 00:45:04;;;;;;;52.58;31.85;;;;;;;;;;5114827;28;20435;-75
2022/11/17 00:47:50;;;;;;;42.22;28.35;;;;;;;;;;5114261;28;20016;-75
2022/11/17 00:50:35;;;;;;;43.63;27.55;;;;;;;;;;5100497;28;20343;-74
2022/11/17 00:53:21;;;;;;;39.88;27.23;;;;;;;;;;5099532;28;20027;-74
2022/11/17 00:56:07;;;;;;;38.13;26.13;;;;;;;;;;5114546;28;20016;-74
2022/11/17 00:58:52;;;;;;;39.63;26.58;;;;;;;;;;5114483;28;20012;-75
2022/11/17 01:01:38;;;;;;;42.30;27.85;;;;;;;;;;5100430;28;20032;-75
2022/11/17 01:04:24;;;;;;;43.30;26.50;;;;;;;;;;5112883;28;20455;-74
2022/11/17 01:07:09;;;;;;;36.90;25.45;;;;;;;;;;5114482;28;20059;-74
2022/11/17 01:09:55;;;;;;;36.90;25.00;;;;;;;;;;5114130;28;20012;-74
2022/11/17 01:12:40;;;;;;;34.55;21.85;;;;;;;;;;5114520;28;20024;-75
2022/11/17 01:15:26;;;;;;;39.10;23.75;;;;;;;;;;5117821;28;20020;-74
2022/11/17 01:18:12;;;;;;;37.60;24.65;;;;;;;;;;5102909;28;20024;-75
2022/11/17 01:21:02;;;;;;;34.92;24.10;;;;;;;;;;5118044;28;20027;-75
2022/11/17 01:23:48;;;;;;;37.30;24.05;;;;;;;;;;5117817;28;20106;-74
2022/11/17 01:26:34;;;;;;;36.30;24.77;;;;;;;;;;5118331;28;20020;-74
2022/11/17 01:29:20;;;;;;;37.65;24.05;;;;;;;;;;5102969;28;20043;-75
2022/11/17 01:32:06;;;;;;;36.90;24.58;;;;;;;;;;5117870;28;20359;-74
2022/11/17 01:34:51;;;;;;;38.88;24.95;;;;;;;;;;5118004;28;20020;-73
2022/11/17 01:37:37;;;;;;;33.67;22.77;;;;;;;;;;5117054;28;20104;-74
2022/11/17 01:40:22;;;;;;;34.13;23.23;;;;;;;;;;5117872;28;20015;-75
2022/11/17 01:43:09;;;;;;;34.55;23.40;;;;;;;;;;5117689;28;20108;-75
2022/11/17 01:45:55;;;;;;;34.85;22.92;;;;;;;;;;5117932;28;20016;-74
2022/11/17 01:48:42;;;;;;;32.03;21.10;;;;;;;;;;5117745;28;20015;-75
2022/11/17 01:51:30;;;;;;;30.60;19.02;;;;;;;;;;5117382;28;20110;-75
2022/11/17 01:54:17;;;;;;;26.10;17.65;;;;;;;;;;5118115;28;20023;-75
2022/11/17 01:57:06;;;;;;;24.73;17.05;;;;;;;;;;5117611;28;20052;-75
2022/11/17 01:59:56;;;;;;;24.05;15.63;;;;;;;;;;5117756;28;20103;-74
2022/11/17 02:02:42;;;;;;;22.73;14.85;;;;;;;;;;5116134;28;20328;-75
2022/11/17 02:05:38;;;;;;;23.63;15.77;;;;;;;;;;5117956;28;20107;-74
2022/11/17 02:08:26;;;;;;;21.50;14.80;;;;;;;;;;5117243;28;20030;-76
2022/11/17 02:11:14;;;;;;;21.80;13.88;;;;;;;;;;5118188;28;20045;-75
2022/11/17 02:13:59;;;;;;;18.98;13.88;;;;;;;;;;5102633;28;20077;-75
2022/11/17 02:16:45;;;;;;;27.08;16.75;;;;;;;;;;5116819;28;20016;-74
2022/11/17 02:19:34;;;;;;;50.80;30.17;;;;;;;;;;5116835;28;20394;-75
2022/11/17 02:22:34;;;;;;;52.03;32.00;;;;;;;;;;5101845;28;20422;-74
2022/11/17 02:25:30;;;;;;;50.65;32.42;;;;;;;;;;5102120;28;20018;-75
2022/11/17 02:28:30;;;;;;;53.85;35.08;;;;;;;;;;5116439;28;20020;-76
2022/11/17 02:31:24;;;;;;;62.25;39.00;;;;;;;;;;5116302;28;20015;-75
2022/11/17 02:34:16;;;;;;;60.35;37.10;;;;;;;;;;5102370;28;20132;-75
2022/11/17 02:37:31;;;;;;;65.45;39.65;;;;;;;;;;5115951;28;20108;-75
2022/11/17 02:40:16;;;;;;;61.78;37.45;;;;;;;;;;5109225;28;20452;-75
2022/11/17 02:46:19;;;;;;;66.43;39.55;;;;;;;;;;5116543;28;20020;-74
2022/11/17 02:49:08;;;;;;;63.25;40.40;;;;;;;;;;5114628;28;20020;-76
2022/11/17 02:51:55;;;;;;;70.63;41.95;;;;;;;;;;5115958;28;20057;-75
2022/11/17 02:54:41;;;;;;;74.28;42.78;;;;;;;;;;5115718;28;20012;-74
2022/11/17 02:57:26;;;;;;;68.28;41.35;;;;;;;;;;5101247;28;20360;-75
2022/11/17 03:00:14;;;;;;;67.65;40.28;;;;;;;;;;5115582;28;20088;-74
2022/11/17 03:03:02;;;;;;;66.95;41.40;;;;;;;;;;5115713;28;20101;-74
2022/11/17 03:05:57;;;;;;;67.68;39.75;;;;;;;;;;5115441;28;20020;-75
2022/11/17 03:08:58;;;;;;;66.88;40.33;;;;;;;;;;5115718;28;20016;-75
2022/11/17 03:11:46;;;;;;;68.03;41.22;;;;;;;;;;5115345;28;20290;-74
2022/11/17 03:14:39;;;;;;;64.60;39.63;;;;;;;;;;5115150;28;20080;-74
2022/11/17 03:17:34;;;;;;;64.93;40.42;;;;;;;;;;5115209;28;20020;-74
2022/11/17 03:20:32;;;;;;;74.05;43.88;;;;;;;;;;5115104;28;20482;-75
2022/11/17 03:23:19;;;;;;;71.63;41.28;;;;;;;;;;5115372;28;20161;-76
2022/11/17 03:26:07;;;;;;;69.32;42.10;;;;;;;;;;5115030;28;20008;-75
2022/11/17 03:28:53;;;;;;;65.50;40.50;;;;;;;;;;5117349;28;20020;-75
2022/11/17 03:31:40;;;;;;;67.57;40.78;;;;;;;;;;5114966;28;20332;-74
2022/11/17 03:34:27;;;;;;;66.47;39.65;;;;;;;;;;5115571;28;20023;-75
2022/11/17 03:37:14;;;;;;;71.13;41.83;;;;;;;;;;5113172;28;20077;-74
2022/11/17 03:40:05;;;;;;;67.43;40.40;;;;;;;;;;5121074;28;20520;-74
2022/11/17 03:42:52;;;;;;;68.65;41.53;;;;;;;;;;5114912;28;20020;-75
2022/11/17 03:45:41;;;;;;;67.20;37.15;;;;;;;;;;5115709;28;20357;-75
2022/11/17 03:48:36;;;;;;;64.88;39.08;;;;;;;;;;5100333;28;20019;-74
2022/11/17 03:51:23;;;;;;;69.90;39.97;;;;;;;;;;5115736;28;20380;-74
2022/11/17 03:54:09;;;;;;;65.65;38.88;;;;;;;;;;5099285;28;20015;-75
2022/11/17 03:57:00;;;;;;;60.70;37.03;;;;;;;;;;5099630;28;20371;-75
2022/11/17 03:59:46;;;;;;;63.35;38.42;;;;;;;;;;5099653;28;20076;-75
2022/11/17 04:02:32;;;;;;;61.70;36.85;;;;;;;;;;5114510;28;20367;-76
2022/11/17 04:05:17;;;;;;;64.45;37.63;;;;;;;;;;5113595;28;20057;-74
2022/11/17 04:08:03;;;;;;;62.70;37.47;;;;;;;;;;5114975;28;20023;-74
2022/11/17 04:16:57;;;;;;;58.42;35.78;;;;;;;;;;5115337;28;20471;-74
2022/11/17 04:19:42;;;;;;;62.20;36.78;;;;;;;;;;5119325;28;20028;-75
2022/11/17 04:22:28;;;;;;;55.60;35.40;;;;;;;;;;5118589;28;20020;-74
2022/11/17 04:28:35;;;;;;;59.00;36.47;;;;;;;;;;5100612;28;20011;-75
2022/11/17 04:28:35;;;;;;;58.55;36.03;;;;;;;;;;5114538;28;20028;-74
2022/11/17 04:31:22;;;;;;;60.78;35.90;;;;;;;;;;5114484;28;20069;-74
2022/11/17 04:34:08;;;;;;;60.55;37.05;;;;;;;;;;5115444;28;20028;-74
2022/11/17 04:36:53;;;;;;;62.97;37.20;;;;;;;;;;5113853;28;20440;-76
2022/11/17 04:39:39;;;;;;;69.88;39.92;;;;;;;;;;5114074;28;20028;-75
2022/11/17 04:42:24;;;;;;;57.75;35.97;;;;;;;;;;5100266;28;20049;-73
2022/11/17 04:45:10;;;;;;;59.40;34.72;;;;;;;;;;5115476;28;20027;-74
2022/11/17 04:47:56;;;;;;;62.28;35.03;;;;;;;;;;5099928;28;20018;-77
2022/11/17 04:50:41;;;;;;;60.75;36.92;;;;;;;;;;5118588;28;20432;-74
2022/11/17 04:53:28;;;;;;;61.97;35.33;;;;;;;;;;5119012;28;20110;-74
2022/11/17 04:56:14;;;;;;;60.65;36.00;;;;;;;;;;5118456;28;20352;-74
2022/11/17 04:58:59;;;;;;;63.35;37.55;;;;;;;;;;5119233;28;20076;-75
2022/11/17 05:01:45;;;;;;;62.20;37.42;;;;;;;;;;5119346;28;20398;-75
2022/11/17 05:07:35;;;;;;;64.47;36.50;;;;;;;;;;5118927;28;20447;-74
2022/11/17 05:13:20;;;;;;;61.08;35.50;;;;;;;;;;5118175;28;20235;-75
2022/11/17 05:13:26;;;;;;;67.68;37.83;;;;;;;;;;5118212;28;20023;-74
2022/11/17 05:19:17;;;;;;;72.82;44.28;;;;;;;;;;5118661;28;20031;-75
2022/11/17 05:23:52;;;;;;;60.03;38.58;;;;;;;;;;5104029;28;20063;-74
2022/11/17 05:25:09;;;;;;;59.65;39.20;;;;;;;;;;5117810;28;20023;-76
2022/11/17 05:27:55;;;;;;;57.47;35.03;;;;;;;;;;5116869;28;20098;-75
2022/11/17 05:30:41;;;;;;;54.63;33.67;;;;;;;;;;5117205;28;20051;-74
2022/11/17 05:33:26;;;;;;;50.22;30.77;;;;;;;;;;5104316;28;20023;-74
2022/11/17 05:36:12;;;;;;;51.92;30.25;;;;;;;;;;5117783;28;20019;-75
2022/11/17 05:38:58;;;;;;;45.53;28.25;;;;;;;;;;5118367;28;20027;-76
2022/11/17 05:41:44;;;;;;;35.20;21.90;;;;;;;;;;5117652;28;20023;-75
2022/11/17 05:44:29;;;;;;;32.67;19.17;;;;;;;;;;5102442;28;20421;-73
2022/11/17 05:47:15;;;;;;;26.92;15.63;;;;;;;;;;5118148;28;20440;-74
2022/11/17 05:50:01;;;;;;;23.88;15.38;;;;;;;;;;5118038;28;20020;-76
2022/11/17 05:52:46;;;;;;;25.38;15.43;;;;;;;;;;5103202;28;20019;-75
2022/11/17 05:55:32;;;;;;;21.63;13.80;;;;;;;;;;5117480;28;20019;-76
2022/11/17 05:58:26;;;;;;;20.70;13.43;;;;;;;;;;5117351;28;20020;-75
2022/11/17 06:01:12;;;;;;;18.23;11.07;;;;;;;;;;5117201;28;20443;-75
2022/11/17 06:04:00;;;;;;;16.65;11.40;;;;;;;;;;5117388;28;20444;-76
2022/11/17 06:06:46;;;;;;;17.70;11.00;;;;;;;;;;5116623;28;20030;-76
2022/11/17 06:09:36;;;;;;;13.75;9.85;;;;;;;;;;5117798;28;20015;-75
2022/11/17 06:12:21;;;;;;;19.40;10.77;;;;;;;;;;5118126;28;20031;-74
2022/11/17 06:15:07;;;;;;;17.33;10.70;;;;;;;;;;5102640;28;20023;-75
2022/11/17 06:17:56;;;;;;;16.73;10.70;;;;;;;;;;5108474;28;20019;-76
2022/11/17 06:20:44;;;;;;;22.50;12.50;;;;;;;;;;5118059;28;20065;-75
2022/11/17 06:23:30;;;;;;;20.42;13.23;;;;;;;;;;5117185;28;20034;-75
2022/11/17 06:26:16;;;;;;;20.42;13.77;;;;;;;;;;5103196;28;20015;-76
2022/11/17 06:29:03;;;;;;;22.13;13.52;;;;;;;;;;5117602;28;20016;-76
2022/11/17 06:31:48;;;;;;;23.50;13.65;;;;;;;;;;5103052;28;20031;-75
2022/11/17 06:34:34;;;;;;;21.40;13.05;;;;;;;;;;5115945;28;20019;-76
2022/11/17 06:37:20;;;;;;;19.58;11.70;;;;;;;;;;5116244;28;20087;-75
2022/11/17 06:40:05;;;;;;;20.13;11.90;;;;;;;;;;5116943;28;20046;-75
2022/11/17 06:43:07;;;;;;;19.80;12.82;;;;;;;;;;5116385;28;20447;-74
2022/11/17 06:45:52;;;;;;;16.95;11.15;;;;;;;;;;5107939;28;20440;-75
2022/11/17 06:48:38;;;;;;;17.40;11.35;;;;;;;;;;5116896;28;20024;-75
2022/11/17 06:51:24;;;;;;;18.45;10.85;;;;;;;;;;5116817;28;20062;-75
2022/11/17 06:54:11;;;;;;;21.48;12.05;;;;;;;;;;5101730;28;20039;-76
2022/11/17 06:56:57;;;;;;;18.83;10.75;;;;;;;;;;5116957;28;20022;-76
2022/11/17 06:59:42;;;;;;;17.00;11.05;;;;;;;;;;5102628;28;20135;-75
2022/11/17 07:02:29;;;;;;;17.63;11.07;;;;;;;;;;5116018;28;20088;-75
2022/11/17 07:05:15;;;;;;;20.10;10.93;;;;;;;;;;5101550;28;20015;-74
2022/11/17 07:08:02;;;;;;;17.40;10.77;;;;;;;;;;5101398;28;20024;-75
2022/11/17 07:10:53;;;;;;;21.00;10.98;;;;;;;;;;5116228;28;20019;-75
2022/11/17 07:13:39;;;;;;;17.85;10.73;;;;;;;;;;5101316;28;20023;-76
2022/11/17 07:16:25;;;;;;;19.02;10.77;;;;;;;;;;5102056;28;20023;-76
2022/11/17 07:19:11;;;;;;;20.08;11.40;;;;;;;;;;5100916;28;20336;-76
2022/11/17 07:21:57;;;;;;;18.48;11.45;;;;;;;;;;5102049;28;20030;-76
2022/11/17 07:24:43;;;;;;;15.85;9.80;;;;;;;;;;5116318;28;20027;-76
2022/11/17 07:27:29;;;;;;;15.10;9.70;;;;;;;;;;5101621;28;20466;-75
2022/11/17 07:30:15;;;;;;;18.38;9.70;;;;;;;;;;5116076;28;20045;-78
2022/11/17 07:33:00;;;;;;;16.50;9.77;;;;;;;;;;5102560;28;20034;-78
2022/11/17 07:35:46;;;;;;;16.08;10.13;;;;;;;;;;5102318;28;20023;-78
2022/11/17 07:38:32;;;;;;;19.50;9.43;;;;;;;;;;5115516;28;20108;-78
2022/11/17 07:41:18;;;;;;;18.70;10.45;;;;;;;;;;5102217;28;20153;-78
2022/11/17 07:44:04;;;;;;;19.98;10.60;;;;;;;;;;5115335;28;20027;-78
2022/11/17 07:46:49;;;;;;;20.17;10.45;;;;;;;;;;5114915;28;20019;-78
2022/11/17 07:49:35;;;;;;;17.98;10.23;;;;;;;;;;5115237;28;20088;-79
2022/11/17 07:52:20;;;;;;;19.23;10.52;;;;;;;;;;5116222;28;20020;-78
2022/11/17 07:55:06;;;;;;;22.58;11.07;;;;;;;;;;5130935;28;20016;-78
2022/11/17 07:57:58;;;;;;;25.83;12.63;;;;;;;;;;5117745;28;20024;-78
2022/11/17 08:00:44;;;;;;;23.85;11.30;;;;;;;;;;5115610;28;20451;-78
2022/11/17 08:03:29;;;;;;;19.40;10.90;;;;;;;;;;5117987;28;20035;-78
2022/11/17 08:06:15;;;;;;;26.65;12.35;;;;;;;;;;5114975;28;20015;-78
2022/11/17 08:09:01;;;;;;;22.55;11.82;;;;;;;;;;5101361;28;20424;-78
2022/11/17 08:11:47;;;;;;;23.63;12.60;;;;;;;;;;5115407;28;20053;-79
2022/11/17 08:14:32;;;;;;;27.63;14.23;;;;;;;;;;5100527;28;20020;-78
2022/11/17 08:17:18;;;;;;;30.52;14.48;;;;;;;;;;5114771;28;20052;-78
2022/11/17 08:20:04;;;;;;;34.78;14.25;;;;;;;;;;5115223;28;20435;-79
2022/11/17 08:22:50;;;;;;;31.05;14.57;;;;;;;;;;5114314;28;20032;-77
2022/11/17 08:25:36;;;;;;;23.05;13.65;;;;;;;;;;5103012;28;20016;-78
2022/11/17 08:28:21;;;;;;;26.33;14.23;;;;;;;;;;5102166;28;20055;-77
2022/11/17 08:31:07;;;;;;;24.25;14.93;;;;;;;;;;5100198;28;20080;-78
2022/11/17 08:33:52;;;;;;;23.40;14.85;;;;;;;;;;5100079;28;20084;-78
2022/11/17 08:36:39;;;;;;;23.33;14.45;;;;;;;;;;5099827;28;20039;-78
2022/11/17 08:39:24;;;;;;;22.45;15.40;;;;;;;;;;5115584;28;20035;-78
2022/11/17 08:42:10;;;;;;;25.35;15.52;;;;;;;;;;5113777;28;20023;-78
2022/11/17 08:44:55;;;;;;;25.80;16.23;;;;;;;;;;5100873;28;20031;-78
2022/11/17 08:47:41;;;;;;;26.27;16.30;;;;;;;;;;5114875;28;20012;-77
2022/11/17 08:50:27;;;;;;;24.90;14.88;;;;;;;;;;5101276;28;20045;-77
2022/11/17 08:53:16;;;;;;;22.58;13.98;;;;;;;;;;5113918;28;20028;-77
2022/11/17 08:56:06;;;;;;;23.70;14.82;;;;;;;;;;5105880;28;20034;-77
2022/11/17 08:58:51;;;;;;;20.63;12.57;;;;;;;;;;5125045;28;20023;-77
2022/11/17 09:01:37;;;;;;;21.45;12.32;;;;;;;;;;5127765;28;20055;-76
2022/11/17 09:04:23;;;;;;;19.02;11.25;;;;;;;;;;5124129;28;20016;-78
2022/11/17 09:07:08;;;;;;;17.20;11.70;;;;;;;;;;5125527;28;20023;-77
2022/11/17 09:09:54;;;;;;;23.60;11.98;;;;;;;;;;5122256;28;20043;-76
2022/11/17 09:12:39;;;;;;;21.42;11.90;;;;;;;;;;5104532;28;20023;-76
2022/11/17 09:15:25;;;;;;;16.63;10.68;;;;;;;;;;5117970;28;20061;-76
2022/11/17 09:18:10;;;;;;;16.73;9.43;;;;;;;;;;5117546;28;20031;-75
2022/11/17 09:21:03;;;;;;;13.35;8.93;;;;;;;;;;5105533;28;20053;-76
2022/11/17 09:23:49;;;;;;;14.70;9.70;;;;;;;;;;5107430;28;20027;-76
2022/11/17 09:26:34;;;;;;;16.65;9.55;;;;;;;;;;5122084;28;20035;-77
2022/11/17 09:29:20;;;;;;;17.50;10.10;;;;;;;;;;5122602;28;20031;-77
2022/11/17 09:32:06;;;;;;;12.13;8.65;;;;;;;;;;5122634;28;20028;-77
2022/11/17 09:34:51;;;;;;;13.98;8.82;;;;;;;;;;5110038;28;20020;-78
2022/11/17 09:37:37;;;;;;;12.10;7.80;;;;;;;;;;5119785;28;20124;-77
2022/11/17 09:40:23;;;;;;;12.73;8.70;;;;;;;;;;5109775;28;20440;-77
2022/11/17 09:43:17;;;;;;;14.85;10.00;;;;;;;;;;5105279;28;20085;-77
2022/11/17 09:46:25;;;;;;;16.67;8.80;;;;;;;;;;5104442;28;20136;-77
2022/11/17 09:49:19;;;;;;;14.27;8.55;;;;;;;;;;5118355;28;20043;-77
2022/11/17 09:52:23;;;;;;;20.80;12.15;;;;;;;;;;5120074;28;20034;-77
2022/11/17 09:55:28;;;;;;;13.63;9.23;;;;;;;;;;5118064;28;20455;-77
2022/11/17 09:58:18;;;;;;;12.18;8.38;;;;;;;;;;5119235;28;20030;-77
2022/11/17 10:01:04;;;;;;;12.75;8.30;;;;;;;;;;5105162;27;20433;-77
2022/11/17 10:03:50;;;;;;;12.57;8.43;;;;;;;;;;5102700;28;20055;-78
2022/11/17 10:06:35;;;;;;;15.55;9.10;;;;;;;;;;5105099;27;20516;-76
2022/11/17 10:09:27;;;;;;;11.93;6.50;;;;;;;;;;5118274;28;20027;-77
2022/11/17 10:12:20;;;;;;;8.48;5.90;;;;;;;;;;5118459;28;20062;-77
2022/11/17 10:15:17;;;;;;;7.72;6.05;;;;;;;;;;5108129;28;20023;-76
2022/11/17 10:18:07;;;;;;;8.25;6.13;;;;;;;;;;5123522;28;20405;-77
2022/11/17 10:20:52;;;;;;;10.05;6.13;;;;;;;;;;5126171;28;20044;-77
2022/11/17 10:23:39;;;;;;;13.32;7.50;;;;;;;;;;5124093;28;20020;-77
2022/11/17 10:26:25;;;;;;;11.57;6.20;;;;;;;;;;5114182;27;21475;-77
2022/11/17 10:29:11;;;;;;;11.93;7.45;;;;;;;;;;5125077;28;20008;-77
2022/11/17 10:31:58;;;;;;;12.48;7.93;;;;;;;;;;5111295;28;20498;-78
2022/11/17 10:34:45;;;;;;;9.70;7.88;;;;;;;;;;5108830;28;20412;-77
2022/11/17 10:37:30;;;;;;;10.68;7.90;;;;;;;;;;5107778;28;20068;-75
2022/11/17 10:40:18;;;;;;;12.07;8.60;;;;;;;;;;5127399;28;20436;-78
2022/11/17 10:43:10;;;;;;;13.57;9.70;;;;;;;;;;5124193;28;20032;-78
2022/11/17 10:45:57;;;;;;;14.07;9.55;;;;;;;;;;5112074;27;20024;-76
2022/11/17 10:48:53;;;;;;;13.02;10.13;;;;;;;;;;5111101;28;20443;-77
2022/11/17 10:51:39;;;;;;;13.20;10.23;;;;;;;;;;5098773;28;20035;-77
2022/11/17 10:54:24;;;;;;;15.63;10.30;;;;;;;;;;5118507;28;20095;-77
2022/11/17 10:57:15;;;;;;;16.80;11.20;;;;;;;;;;5116811;28;20072;-76
2022/11/17 11:00:01;;;;;;;15.68;11.98;;;;;;;;;;5117439;28;20024;-77
2022/11/17 11:02:47;;;;;;;17.20;13.05;;;;;;;;;;5101568;28;20028;-77
2022/11/17 11:05:32;;;;;;;18.55;13.57;;;;;;;;;;5101700;28;20011;-78
2022/11/17 11:08:21;;;;;;;25.00;15.68;;;;;;;;;;5116273;28;20102;-76
2022/11/17 11:11:10;;;;;;;25.13;17.42;;;;;;;;;;5116367;28;20037;-76
2022/11/17 11:14:08;;;;;;;31.02;21.25;;;;;;;;;;5116360;28;20435;-77
2022/11/17 11:16:54;;;;;;;32.75;22.83;;;;;;;;;;5117185;28;20044;-78
2022/11/17 11:19:46;;;;;;;35.08;25.50;;;;;;;;;;5102025;28;20023;-78
2022/11/17 11:22:58;;;;;;;37.67;27.42;;;;;;;;;;5116564;28;20015;-76
2022/11/17 11:25:48;;;;;;;38.38;27.83;;;;;;;;;;5116233;28;20422;-76
2022/11/17 11:28:33;;;;;;;36.70;26.50;;;;;;;;;;5116043;28;20026;-77
2022/11/17 11:31:19;;;;;;;38.70;28.25;;;;;;;;;;5116228;28;20024;-76
2022/11/17 11:34:04;;;;;;;39.25;27.17;;;;;;;;;;5101118;28;20047;-77
2022/11/17 11:36:54;;;;;;;40.42;28.27;;;;;;;;;;5115485;28;20043;-76
2022/11/17 11:39:43;;;;;;;36.25;25.38;;;;;;;;;;5100789;28;20030;-78
2022/11/17 11:42:37;;;;;;;38.35;25.05;;;;;;;;;;5115453;28;20043;-76
2022/11/17 11:45:39;;;;;;;34.50;24.70;;;;;;;;;;5100962;28;20048;-76
2022/11/17 11:48:32;;;;;;;33.22;23.20;;;;;;;;;;5115574;28;20026;-76
2022/11/17 11:51:21;;;;;;;32.20;23.23;;;;;;;;;;5116198;28;20015;-77
2022/11/17 11:54:46;;;;;;;32.80;23.20;;;;;;;;;;5115235;28;20024;-77
2022/11/17 11:57:35;;;;;;;29.27;20.98;;;;;;;;;;5014139;28;20374;-77
2022/11/17 12:00:21;;;;;;;27.88;20.38;;;;;;;;;;5013587;28;20022;-77
2022/11/17 12:03:13;;;;;;;25.88;18.90;;;;;;;;;;5092049;28;20161;-77
2022/11/17 12:06:40;;;;;;;28.50;18.70;;;;;;;;;;5115418;28;20020;-76
2022/11/17 12:09:32;;;;;;;26.17;17.33;;;;;;;;;;5014271;28;20430;-77
2022/11/17 12:12:19;;;;;;;26.40;17.38;;;;;;;;;;5114932;28;20024;-77
2022/11/17 12:15:04;;;;;;;26.05;17.30;;;;;;;;;;5114968;28;20028;-79
2022/11/17 12:18:05;;;;;;;24.23;15.82;;;;;;;;;;5115320;28;20020;-77
2022/11/17 12:20:51;;;;;;;20.73;13.55;;;;;;;;;;5115051;28;20042;-77
2022/11/17 12:23:45;;;;;;;17.60;11.38;;;;;;;;;;5114980;28;20158;-77
2022/11/17 12:26:32;;;;;;;16.90;10.15;;;;;;;;;;5115028;28;20099;-77
2022/11/17 12:29:20;;;;;;;15.23;10.88;;;;;;;;;;5115063;28;20085;-77
2022/11/17 12:32:07;;;;;;;13.98;10.80;;;;;;;;;;5114874;28;20020;-78
2022/11/17 12:35:18;;;;;;;14.45;10.32;;;;;;;;;;5114961;28;20027;-77
2022/11/17 12:38:14;;;;;;;11.68;9.10;;;;;;;;;;5115431;28;20058;-75
2022/11/17 12:40:59;;;;;;;13.32;9.40;;;;;;;;;;5115246;28;20070;-76
2022/11/17 12:43:45;;;;;;;11.20;8.90;;;;;;;;;;5114732;28;20019;-76
2022/11/17 12:46:32;;;;;;;12.70;8.88;;;;;;;;;;5114252;28;20444;-77
2022/11/17 12:49:23;;;;;;;10.10;8.38;;;;;;;;;;5115891;28;20496;-76
2022/11/17 12:52:15;;;;;;;10.77;8.60;;;;;;;;;;5101479;28;20122;-77
2022/11/17 12:55:20;;;;;;;10.85;7.78;;;;;;;;;;5114621;28;20024;-77
2022/11/17 12:58:11;;;;;;;9.00;7.53;;;;;;;;;;5114775;28;20035;-77
2022/11/17 13:01:09;;;;;;;9.07;6.88;;;;;;;;;;5115201;28;20340;-77
2022/11/17 13:03:55;;;;;;;7.88;6.22;;;;;;;;;;5115583;28;20034;-77
2022/11/17 13:07:00;;;;;;;8.02;6.85;;;;;;;;;;5115457;28;20458;-78
2022/11/17 13:09:53;;;;;;;9.05;7.72;;;;;;;;;;5115301;28;20356;-77
2022/11/17 13:12:38;;;;;;;8.55;7.65;;;;;;;;;;5105168;28;20088;-78
2022/11/17 13:15:24;;;;;;;9.63;8.27;;;;;;;;;;5119362;28;20440;-76
2022/11/17 13:18:26;;;;;;;10.32;8.10;;;;;;;;;;5118565;28;20367;-77
2022/11/17 13:21:31;;;;;;;10.25;8.75;;;;;;;;;;5105002;27;20088;-77
2022/11/17 13:24:27;;;;;;;10.70;9.25;;;;;;;;;;5118374;28;20019;-77
2022/11/17 13:27:23;;;;;;;10.40;9.13;;;;;;;;;;5118298;28;20020;-77
2022/11/17 13:30:13;;;;;;;11.02;9.20;;;;;;;;;;5119225;28;20031;-77
2022/11/17 13:33:01;;;;;;;11.15;9.55;;;;;;;;;;5118604;28;20042;-77
2022/11/17 13:35:46;;;;;;;14.25;10.55;;;;;;;;;;5118235;28;20037;-78
2022/11/17 13:38:32;;;;;;;13.23;10.57;;;;;;;;;;5117993;28;20047;-76
2022/11/17 13:41:18;;;;;;;12.18;10.52;;;;;;;;;;5118352;28;20042;-76
2022/11/17 13:44:05;;;;;;;13.90;12.48;;;;;;;;;;5118057;28;20088;-75
2022/11/17 13:46:51;;;;;;;11.80;10.43;;;;;;;;;;5117756;28;20015;-76
2022/11/17 13:49:38;;;;;;;13.85;10.57;;;;;;;;;;5118149;28;20043;-77
2022/11/17 13:52:31;;;;;;;12.98;10.63;;;;;;;;;;5118307;28;20019;-77
2022/11/17 13:55:17;;;;;;;11.27;10.07;;;;;;;;;;5118159;28;20026;-76
2022/11/17 13:58:07;;;;;;;11.80;10.45;;;;;;;;;;5124203;28;20484;-75
2022/11/17 14:00:54;;;;;;;12.82;10.32;;;;;;;;;;5117035;28;20355;-77
2022/11/17 14:03:41;;;;;;;15.57;12.43;;;;;;;;;;5117766;28;20110;-77
2022/11/17 14:06:46;;;;;;;13.35;11.65;;;;;;;;;;5102720;28;20092;-76
2022/11/17 14:09:35;;;;;;;14.27;11.88;;;;;;;;;;5118034;28;20030;-76
2022/11/17 14:12:20;;;;;;;21.67;14.23;;;;;;;;;;5104825;28;20024;-75
2022/11/17 14:15:14;;;;;;;18.15;13.73;;;;;;;;;;5118627;28;20051;-76
2022/11/17 14:18:01;;;;;;;15.55;12.68;;;;;;;;;;5118979;28;20459;-75
2022/11/17 14:20:46;;;;;;;18.42;13.15;;;;;;;;;;5102074;28;20024;-74
2022/11/17 14:23:32;;;;;;;15.25;13.15;;;;;;;;;;5116387;28;20023;-75
2022/11/17 14:26:22;;;;;;;16.85;13.85;;;;;;;;;;5117967;28;20390;-75
2022/11/17 14:29:09;;;;;;;15.82;12.90;;;;;;;;;;5104616;28;20114;-76
2022/11/17 14:31:55;;;;;;;18.02;14.23;;;;;;;;;;5103388;28;20015;-74
2022/11/17 14:34:41;;;;;;;14.23;12.73;;;;;;;;;;5117811;28;20099;-75
2022/11/17 14:37:28;;;;;;;14.75;13.13;;;;;;;;;;5118024;28;20044;-76
2022/11/17 14:40:14;;;;;;;14.52;13.02;;;;;;;;;;5107820;28;20012;-76
2022/11/17 14:43:00;;;;;;;15.63;12.65;;;;;;;;;;5106197;28;20020;-76
2022/11/17 14:45:53;;;;;;;17.10;14.38;;;;;;;;;;5124304;28;20019;-77
2022/11/17 14:48:38;;;;;;;16.80;14.25;;;;;;;;;;5110260;28;20030;-76
2022/11/17 14:51:27;;;;;;;18.63;15.20;;;;;;;;;;5108707;28;20020;-78
2022/11/17 14:54:13;;;;;;;17.65;15.13;;;;;;;;;;5108883;28;20012;-77
2022/11/17 14:56:59;;;;;;;18.08;15.32;;;;;;;;;;5120215;28;20035;-75
2022/11/17 14:59:44;;;;;;;17.95;14.95;;;;;;;;;;5120521;28;20024;-76
2022/11/17 15:02:30;;;;;;;18.70;16.00;;;;;;;;;;5105788;28;20015;-75
2022/11/17 15:05:16;;;;;;;17.88;15.00;;;;;;;;;;5119369;28;20019;-76
2022/11/17 15:08:02;;;;;;;17.55;14.57;;;;;;;;;;5120445;28;20351;-74
2022/11/17 15:10:50;;;;;;;18.08;15.38;;;;;;;;;;5105295;28;20557;-77
2022/11/17 15:13:35;;;;;;;16.95;14.15;;;;;;;;;;5101209;28;20058;-73
2022/11/17 15:16:21;;;;;;;19.77;15.35;;;;;;;;;;5101135;28;20027;-74
2022/11/17 15:19:06;;;;;;;16.83;15.00;;;;;;;;;;5116960;28;20041;-77
2022/11/17 15:21:52;;;;;;;17.55;14.85;;;;;;;;;;5116465;28;20028;-77
2022/11/17 15:24:38;;;;;;;72.82;48.60;;;;;;;;;;5116224;28;20038;-76
2022/11/17 15:27:23;;;;;;;41.63;29.55;;;;;;;;;;5116867;28;20020;-76
2022/11/17 15:30:09;;;;;;;45.40;34.22;;;;;;;;;;5101216;28;20034;-75
2022/11/17 15:32:59;;;;;;;19.45;15.25;;;;;;;;;;5100453;28;20360;-76
2022/11/17 15:35:45;;;;;;;20.00;15.13;;;;;;;;;;5101448;28;20028;-74
2022/11/17 15:38:31;;;;;;;18.42;14.35;;;;;;;;;;5115646;28;20099;-75
2022/11/17 15:41:18;;;;;;;16.67;13.07;;;;;;;;;;5101683;28;20085;-79
2022/11/17 15:44:04;;;;;;;18.15;13.55;;;;;;;;;;5115832;28;20447;-75
2022/11/17 15:46:49;;;;;;;16.23;12.73;;;;;;;;;;5101377;28;20047;-77
2022/11/17 15:49:35;;;;;;;18.20;12.75;;;;;;;;;;5101223;28;20072;-76
2022/11/17 15:52:20;;;;;;;16.35;12.48;;;;;;;;;;5115527;28;20084;-76
2022/11/17 15:55:06;;;;;;;18.13;13.95;;;;;;;;;;5101280;28;20015;-76
2022/11/17 15:57:53;;;;;;;14.95;12.57;;;;;;;;;;5115155;28;20392;-77
2022/11/17 16:00:39;;;;;;;17.70;13.32;;;;;;;;;;5114593;28;20089;-75
2022/11/17 16:03:24;;;;;;;17.67;12.90;;;;;;;;;;5116774;28;20031;-76
2022/11/17 16:06:11;;;;;;;19.45;14.10;;;;;;;;;;5100024;28;20016;-77
2022/11/17 16:08:56;;;;;;;33.75;21.83;;;;;;;;;;5115012;28;20352;-76
2022/11/17 16:11:42;;;;;;;26.13;17.50;;;;;;;;;;5115328;28;20016;-76
2022/11/17 16:14:28;;;;;;;25.30;17.83;;;;;;;;;;5115966;28;20027;-76
2022/11/17 16:17:13;;;;;;;17.15;13.50;;;;;;;;;;5101202;28;20028;-76
2022/11/17 16:19:59;;;;;;;19.85;14.20;;;;;;;;;;5100619;28;20019;-75
2022/11/17 16:22:45;;;;;;;21.10;13.27;;;;;;;;;;5113329;28;20015;-76
2022/11/17 16:25:30;;;;;;;19.58;13.95;;;;;;;;;;5113933;28;20011;-76
2022/11/17 16:28:16;;;;;;;22.50;15.30;;;;;;;;;;5121277;28;20379;-76
2022/11/17 16:31:11;;;;;;;19.70;13.73;;;;;;;;;;5116040;28;20012;-76
2022/11/17 16:34:01;;;;;;;22.85;14.00;;;;;;;;;;5114769;28;20031;-76
2022/11/17 16:36:47;;;;;;;20.98;15.73;;;;;;;;;;5114337;28;20116;-76
2022/11/17 16:39:32;;;;;;;18.60;13.93;;;;;;;;;;5114462;28;20028;-76
2022/11/17 16:42:18;;;;;;;24.35;14.85;;;;;;;;;;5100162;28;20027;-76
2022/11/17 16:45:04;;;;;;;18.42;13.50;;;;;;;;;;5119793;28;20015;-76
2022/11/17 16:47:49;;;;;;;17.10;13.25;;;;;;;;;;5107797;28;20053;-77
2022/11/17 16:50:39;;;;;;;18.48;13.73;;;;;;;;;;5121572;28;20016;-76